sensor_id;sensor_type;location;lat;lon;timestamp;temperature;humidity
1800;DHT22;919;48.274;12.292;2023-08-06T00:01:27;16.00;99.90
1800;DHT22;919;48.274;12.292;2023-08-06T00:03:54;15.90;99.90
1800;DHT22;919;48.274;12.292;2023-08-06T00:06:21;15.90;99.90
1800;DHT22;919;48.274;12.292;2023-08-06T00:08:47;15.90;99.90
1800;DHT22;919;48.274;12.292;2023-08-06T00:11:14;15.90;99.90
1800;DHT22;919;48.274;12.292;2023-08-06T00:13:42;15.90;99.90
1800;DHT22;919;48.274;12.292;2023-08-06T00:16:10;15.90;99.90
1800;DHT22;919;48.274;12.292;2023-08-06T00:18:36;15.90;99.90
1800;DHT22;919;48.274;12.292;2023-08-06T00:21:03;15.90;99.90
1800;DHT22;919;48.274;12.292;2023-08-06T00:23:30;15.80;99.90
1800;DHT22;919;48.274;12.292;2023-08-06T00:25:57;15.80;99.90
1800;DHT22;919;48.274;12.292;2023-08-06T00:28:23;15.80;99.90
1800;DHT22;919;48.274;12.292;2023-08-06T00:30:54;15.70;99.90
1800;DHT22;919;48.274;12.292;2023-08-06T00:33:21;15.70;99.90
1800;DHT22;919;48.274;12.292;2023-08-06T00:35:47;15.70;99.90
1800;DHT22;919;48.274;12.292;2023-08-06T00:38:14;15.70;99.90
1800;DHT22;919;48.274;12.292;2023-08-06T00:40:41;15.70;99.90
1800;DHT22;919;48.274;12.292;2023-08-06T00:43:08;15.70;99.90
1800;DHT22;919;48.274;12.292;2023-08-06T00:45:36;15.70;99.90
1800;DHT22;919;48.274;12.292;2023-08-06T00:48:05;15.70;99.90
1800;DHT22;919;48.274;12.292;2023-08-06T00:50:32;15.70;99.90
1800;DHT22;919;48.274;12.292;2023-08-06T00:52:59;15.70;99.90
1800;DHT22;919;48.274;12.292;2023-08-06T00:55:26;15.80;99.90
1800;DHT22;919;48.274;12.292;2023-08-06T00:57:53;15.80;99.90
1800;DHT22;919;48.274;12.292;2023-08-06T01:00:22;15.80;99.90
1800;DHT22;919;48.274;12.292;2023-08-06T01:02:49;15.80;99.90
1800;DHT22;919;48.274;12.292;2023-08-06T01:05:17;15.80;99.90
1800;DHT22;919;48.274;12.292;2023-08-06T01:07:51;15.80;99.90
1800;DHT22;919;48.274;12.292;2023-08-06T01:10:28;15.80;99.90
1800;DHT22;919;48.274;12.292;2023-08-06T01:13:06;15.70;99.90
1800;DHT22;919;48.274;12.292;2023-08-06T01:15:39;15.70;99.90
1800;DHT22;919;48.274;12.292;2023-08-06T01:18:07;15.70;99.90
1800;DHT22;919;48.274;12.292;2023-08-06T01:20:36;15.70;99.90
1800;DHT22;919;48.274;12.292;2023-08-06T01:23:02;15.60;99.90
1800;DHT22;919;48.274;12.292;2023-08-06T01:25:31;15.60;99.90
1800;DHT22;919;48.274;12.292;2023-08-06T01:28:04;15.50;99.90
1800;DHT22;919;48.274;12.292;2023-08-06T01:30:34;15.60;99.90
1800;DHT22;919;48.274;12.292;2023-08-06T01:33:05;15.60;99.90
1800;DHT22;919;48.274;12.292;2023-08-06T01:35:32;15.60;99.90
1800;DHT22;919;48.274;12.292;2023-08-06T01:38:01;15.50;99.90
1800;DHT22;919;48.274;12.292;2023-08-06T01:40:29;15.50;99.90
1800;DHT22;919;48.274;12.292;2023-08-06T01:42:56;15.40;99.90
1800;DHT22;919;48.274;12.292;2023-08-06T01:45:22;15.40;99.90
1800;DHT22;919;48.274;12.292;2023-08-06T01:47:49;15.40;99.90
1800;DHT22;919;48.274;12.292;2023-08-06T01:50:16;15.40;99.90
1800;DHT22;919;48.274;12.292;2023-08-06T01:52:43;15.40;99.90
1800;DHT22;919;48.274;12.292;2023-08-06T01:55:11;15.40;99.90
1800;DHT22;919;48.274;12.292;2023-08-06T01:57:37;15.50;99.90
1800;DHT22;919;48.274;12.292;2023-08-06T02:00:05;15.50;99.90
1800;DHT22;919;48.274;12.292;2023-08-06T02:02:32;15.50;99.90
1800;DHT22;919;48.274;12.292;2023-08-06T02:04:59;15.50;99.90
1800;DHT22;919;48.274;12.292;2023-08-06T02:07:26;15.50;99.90
1800;DHT22;919;48.274;12.292;2023-08-06T02:09:52;15.50;99.90
1800;DHT22;919;48.274;12.292;2023-08-06T02:12:20;15.50;99.90
1800;DHT22;919;48.274;12.292;2023-08-06T02:14:47;15.40;99.90
1800;DHT22;919;48.274;12.292;2023-08-06T02:17:14;15.40;99.90
1800;DHT22;919;48.274;12.292;2023-08-06T02:19:41;15.40;99.90
1800;DHT22;919;48.274;12.292;2023-08-06T02:22:08;15.40;99.90
1800;DHT22;919;48.274;12.292;2023-08-06T02:24:35;15.40;99.90
1800;DHT22;919;48.274;12.292;2023-08-06T02:27:02;15.40;99.90
1800;DHT22;919;48.274;12.292;2023-08-06T02:29:30;15.40;99.90
1800;DHT22;919;48.274;12.292;2023-08-06T02:31:56;15.30;99.90
1800;DHT22;919;48.274;12.292;2023-08-06T02:34:24;15.40;99.90
1800;DHT22;919;48.274;12.292;2023-08-06T02:36:51;15.30;99.90
1800;DHT22;919;48.274;12.292;2023-08-06T02:39:17;15.30;99.90
1800;DHT22;919;48.274;12.292;2023-08-06T02:41:45;15.30;99.90
1800;DHT22;919;48.274;12.292;2023-08-06T02:44:11;15.20;99.90
1800;DHT22;919;48.274;12.292;2023-08-06T02:46:39;15.10;99.90
1800;DHT22;919;48.274;12.292;2023-08-06T02:49:07;15.10;99.90
1800;DHT22;919;48.274;12.292;2023-08-06T02:51:33;15.00;99.90
1800;DHT22;919;48.274;12.292;2023-08-06T02:54:00;15.00;99.90
1800;DHT22;919;48.274;12.292;2023-08-06T02:56:27;15.00;99.90
1800;DHT22;919;48.274;12.292;2023-08-06T02:58:53;15.00;99.90
1800;DHT22;919;48.274;12.292;2023-08-06T03:01:20;14.90;99.90
1800;DHT22;919;48.274;12.292;2023-08-06T03:03:50;14.90;99.90
1800;DHT22;919;48.274;12.292;2023-08-06T03:06:16;14.90;99.90
1800;DHT22;919;48.274;12.292;2023-08-06T03:08:43;14.80;99.90
1800;DHT22;919;48.274;12.292;2023-08-06T03:11:10;14.80;99.90
1800;DHT22;919;48.274;12.292;2023-08-06T03:13:36;14.80;99.90
1800;DHT22;919;48.274;12.292;2023-08-06T03:16:03;14.90;99.90
1800;DHT22;919;48.274;12.292;2023-08-06T03:18:30;14.90;99.90
1800;DHT22;919;48.274;12.292;2023-08-06T03:20:58;14.90;99.90
1800;DHT22;919;48.274;12.292;2023-08-06T03:23:25;14.90;99.90
1800;DHT22;919;48.274;12.292;2023-08-06T03:25:52;14.90;99.90
1800;DHT22;919;48.274;12.292;2023-08-06T03:28:18;14.80;99.90
1800;DHT22;919;48.274;12.292;2023-08-06T03:30:45;14.90;99.90
1800;DHT22;919;48.274;12.292;2023-08-06T03:33:12;14.90;99.90
1800;DHT22;919;48.274;12.292;2023-08-06T03:35:39;14.90;99.90
1800;DHT22;919;48.274;12.292;2023-08-06T03:38:07;14.80;99.90
1800;DHT22;919;48.274;12.292;2023-08-06T03:40:35;14.80;99.90
1800;DHT22;919;48.274;12.292;2023-08-06T03:43:02;14.90;99.90
1800;DHT22;919;48.274;12.292;2023-08-06T03:45:29;14.80;99.90
1800;DHT22;919;48.274;12.292;2023-08-06T03:47:55;14.80;99.90
1800;DHT22;919;48.274;12.292;2023-08-06T03:50:22;14.80;99.90
1800;DHT22;919;48.274;12.292;2023-08-06T03:52:49;14.80;99.90
1800;DHT22;919;48.274;12.292;2023-08-06T03:55:17;14.80;99.90
1800;DHT22;919;48.274;12.292;2023-08-06T03:57:43;14.70;99.90
1800;DHT22;919;48.274;12.292;2023-08-06T04:00:11;14.70;99.90
1800;DHT22;919;48.274;12.292;2023-08-06T04:02:38;14.70;99.90
1800;DHT22;919;48.274;12.292;2023-08-06T04:05:05;14.70;99.90
1800;DHT22;919;48.274;12.292;2023-08-06T04:07:31;14.70;99.90
1800;DHT22;919;48.274;12.292;2023-08-06T04:10:00;14.70;99.90
1800;DHT22;919;48.274;12.292;2023-08-06T04:12:29;14.70;99.90
1800;DHT22;919;48.274;12.292;2023-08-06T04:14:57;14.60;99.90
1800;DHT22;919;48.274;12.292;2023-08-06T04:17:24;14.60;99.90
1800;DHT22;919;48.274;12.292;2023-08-06T04:19:52;14.60;99.90
1800;DHT22;919;48.274;12.292;2023-08-06T04:22:19;14.60;99.90
1800;DHT22;919;48.274;12.292;2023-08-06T04:24:46;14.60;99.90
1800;DHT22;919;48.274;12.292;2023-08-06T04:27:14;14.50;99.90
1800;DHT22;919;48.274;12.292;2023-08-06T04:29:43;14.50;99.90
1800;DHT22;919;48.274;12.292;2023-08-06T04:32:10;14.50;99.90
1800;DHT22;919;48.274;12.292;2023-08-06T04:34:37;14.50;99.90
1800;DHT22;919;48.274;12.292;2023-08-06T04:37:04;14.50;99.90
1800;DHT22;919;48.274;12.292;2023-08-06T04:39:31;14.50;99.90
1800;DHT22;919;48.274;12.292;2023-08-06T04:41:58;14.40;99.90
1800;DHT22;919;48.274;12.292;2023-08-06T04:44:25;14.50;99.90
1800;DHT22;919;48.274;12.292;2023-08-06T04:46:53;14.50;99.90
1800;DHT22;919;48.274;12.292;2023-08-06T04:49:20;14.60;99.90
1800;DHT22;919;48.274;12.292;2023-08-06T04:51:47;14.60;99.90
1800;DHT22;919;48.274;12.292;2023-08-06T04:54:13;14.60;99.90
1800;DHT22;919;48.274;12.292;2023-08-06T04:56:40;14.60;99.90
1800;DHT22;919;48.274;12.292;2023-08-06T04:59:07;14.70;99.90
1800;DHT22;919;48.274;12.292;2023-08-06T05:01:34;14.70;99.90
1800;DHT22;919;48.274;12.292;2023-08-06T05:04:02;14.70;99.90
1800;DHT22;919;48.274;12.292;2023-08-06T05:06:28;14.80;99.90
1800;DHT22;919;48.274;12.292;2023-08-06T05:08:55;14.80;99.90
1800;DHT22;919;48.274;12.292;2023-08-06T05:11:22;14.80;99.90
1800;DHT22;919;48.274;12.292;2023-08-06T05:13:49;14.90;99.90
1800;DHT22;919;48.274;12.292;2023-08-06T05:16:16;14.90;99.90
1800;DHT22;919;48.274;12.292;2023-08-06T05:18:43;14.90;99.90
1800;DHT22;919;48.274;12.292;2023-08-06T05:21:11;15.00;99.90
1800;DHT22;919;48.274;12.292;2023-08-06T05:23:37;15.00;99.90
1800;DHT22;919;48.274;12.292;2023-08-06T05:26:04;15.10;99.90
1800;DHT22;919;48.274;12.292;2023-08-06T05:28:31;15.10;99.90
1800;DHT22;919;48.274;12.292;2023-08-06T05:30:57;15.20;99.90
1800;DHT22;919;48.274;12.292;2023-08-06T05:33:24;15.30;99.90
1800;DHT22;919;48.274;12.292;2023-08-06T05:35:51;15.30;99.90
1800;DHT22;919;48.274;12.292;2023-08-06T05:38:19;15.30;99.90
1800;DHT22;919;48.274;12.292;2023-08-06T05:40:45;15.40;99.90
1800;DHT22;919;48.274;12.292;2023-08-06T05:43:13;15.30;99.90
1800;DHT22;919;48.274;12.292;2023-08-06T05:45:39;15.30;99.90
1800;DHT22;919;48.274;12.292;2023-08-06T05:48:10;15.30;99.90
1800;DHT22;919;48.274;12.292;2023-08-06T05:50:37;15.40;99.90
1800;DHT22;919;48.274;12.292;2023-08-06T05:53:03;15.30;99.90
1800;DHT22;919;48.274;12.292;2023-08-06T05:55:31;15.30;99.90
1800;DHT22;919;48.274;12.292;2023-08-06T05:57:58;15.30;99.90
1800;DHT22;919;48.274;12.292;2023-08-06T06:00:25;15.40;99.90
1800;DHT22;919;48.274;12.292;2023-08-06T06:02:52;15.30;99.90
1800;DHT22;919;48.274;12.292;2023-08-06T06:05:18;15.30;99.90
1800;DHT22;919;48.274;12.292;2023-08-06T06:07:45;15.30;99.90
1800;DHT22;919;48.274;12.292;2023-08-06T06:10:12;15.30;99.90
1800;DHT22;919;48.274;12.292;2023-08-06T06:12:40;15.30;99.90
1800;DHT22;919;48.274;12.292;2023-08-06T06:15:07;15.30;99.90
1800;DHT22;919;48.274;12.292;2023-08-06T06:17:34;15.20;99.90
1800;DHT22;919;48.274;12.292;2023-08-06T06:20:01;15.20;99.90
1800;DHT22;919;48.274;12.292;2023-08-06T06:22:29;15.30;99.90
1800;DHT22;919;48.274;12.292;2023-08-06T06:24:56;15.30;99.90
1800;DHT22;919;48.274;12.292;2023-08-06T06:27:23;15.20;99.90
1800;DHT22;919;48.274;12.292;2023-08-06T06:29:51;15.20;99.90
1800;DHT22;919;48.274;12.292;2023-08-06T06:32:20;15.30;99.90
1800;DHT22;919;48.274;12.292;2023-08-06T06:34:46;15.20;99.90
1800;DHT22;919;48.274;12.292;2023-08-06T06:37:13;15.20;99.90
1800;DHT22;919;48.274;12.292;2023-08-06T06:39:40;15.20;99.90
1800;DHT22;919;48.274;12.292;2023-08-06T06:42:07;15.20;99.90
1800;DHT22;919;48.274;12.292;2023-08-06T06:44:33;15.30;99.90
1800;DHT22;919;48.274;12.292;2023-08-06T06:47:01;15.30;99.90
1800;DHT22;919;48.274;12.292;2023-08-06T06:49:28;15.40;99.90
1800;DHT22;919;48.274;12.292;2023-08-06T06:51:55;15.60;99.90
1800;DHT22;919;48.274;12.292;2023-08-06T06:54:22;15.80;99.90
1800;DHT22;919;48.274;12.292;2023-08-06T06:56:48;15.80;99.90
1800;DHT22;919;48.274;12.292;2023-08-06T06:59:15;15.90;99.90
1800;DHT22;919;48.274;12.292;2023-08-06T07:01:42;15.90;99.90
1800;DHT22;919;48.274;12.292;2023-08-06T07:04:10;15.90;99.90
1800;DHT22;919;48.274;12.292;2023-08-06T07:06:37;16.00;99.90
1800;DHT22;919;48.274;12.292;2023-08-06T07:09:03;15.90;99.90
1800;DHT22;919;48.274;12.292;2023-08-06T07:11:31;15.80;99.90
1800;DHT22;919;48.274;12.292;2023-08-06T07:13:58;15.70;99.90
1800;DHT22;919;48.274;12.292;2023-08-06T07:16:25;15.80;99.90
1800;DHT22;919;48.274;12.292;2023-08-06T07:18:52;15.80;99.90
1800;DHT22;919;48.274;12.292;2023-08-06T07:21:21;15.80;99.90
1800;DHT22;919;48.274;12.292;2023-08-06T07:23:48;15.80;99.90
1800;DHT22;919;48.274;12.292;2023-08-06T07:26:16;15.90;99.90
1800;DHT22;919;48.274;12.292;2023-08-06T07:28:43;16.00;99.90
1800;DHT22;919;48.274;12.292;2023-08-06T07:31:10;16.10;99.90
1800;DHT22;919;48.274;12.292;2023-08-06T07:33:37;16.20;99.90
1800;DHT22;919;48.274;12.292;2023-08-06T07:36:12;16.40;99.90
1800;DHT22;919;48.274;12.292;2023-08-06T07:38:40;16.50;99.90
1800;DHT22;919;48.274;12.292;2023-08-06T07:41:08;16.60;99.90
1800;DHT22;919;48.274;12.292;2023-08-06T07:43:35;16.90;99.90
1800;DHT22;919;48.274;12.292;2023-08-06T07:46:02;17.00;99.90
1800;DHT22;919;48.274;12.292;2023-08-06T07:48:29;17.00;99.90
1800;DHT22;919;48.274;12.292;2023-08-06T07:50:56;17.10;99.90
1800;DHT22;919;48.274;12.292;2023-08-06T07:53:24;17.20;99.90
1800;DHT22;919;48.274;12.292;2023-08-06T07:55:56;17.30;99.90
1800;DHT22;919;48.274;12.292;2023-08-06T07:58:23;17.30;99.90
1800;DHT22;919;48.274;12.292;2023-08-06T08:00:50;17.30;99.90
1800;DHT22;919;48.274;12.292;2023-08-06T08:03:17;17.20;99.90
1800;DHT22;919;48.274;12.292;2023-08-06T08:05:45;17.00;99.90
1800;DHT22;919;48.274;12.292;2023-08-06T08:08:11;17.00;99.90
1800;DHT22;919;48.274;12.292;2023-08-06T08:10:38;17.00;99.90
1800;DHT22;919;48.274;12.292;2023-08-06T08:13:06;16.80;99.90
1800;DHT22;919;48.274;12.292;2023-08-06T08:15:34;16.90;99.90
1800;DHT22;919;48.274;12.292;2023-08-06T08:18:01;16.90;99.90
1800;DHT22;919;48.274;12.292;2023-08-06T08:20:28;16.90;99.90
1800;DHT22;919;48.274;12.292;2023-08-06T08:22:58;17.00;99.90
1800;DHT22;919;48.274;12.292;2023-08-06T08:25:24;17.20;99.90
1800;DHT22;919;48.274;12.292;2023-08-06T08:27:52;17.30;99.90
1800;DHT22;919;48.274;12.292;2023-08-06T08:30:20;17.40;99.90
1800;DHT22;919;48.274;12.292;2023-08-06T08:32:47;17.50;99.90
1800;DHT22;919;48.274;12.292;2023-08-06T08:35:14;17.50;99.90
1800;DHT22;919;48.274;12.292;2023-08-06T08:37:41;17.50;99.90
1800;DHT22;919;48.274;12.292;2023-08-06T08:40:09;17.40;99.90
1800;DHT22;919;48.274;12.292;2023-08-06T08:42:49;17.50;99.90
1800;DHT22;919;48.274;12.292;2023-08-06T08:45:39;17.70;99.90
1800;DHT22;919;48.274;12.292;2023-08-06T08:48:08;17.90;99.90
1800;DHT22;919;48.274;12.292;2023-08-06T08:50:39;18.00;99.90
1800;DHT22;919;48.274;12.292;2023-08-06T08:53:11;18.10;99.90
1800;DHT22;919;48.274;12.292;2023-08-06T08:55:38;18.30;99.90
1800;DHT22;919;48.274;12.292;2023-08-06T08:58:05;18.40;99.90
1800;DHT22;919;48.274;12.292;2023-08-06T09:00:42;18.20;99.90
1800;DHT22;919;48.274;12.292;2023-08-06T09:03:09;18.10;99.90
1800;DHT22;919;48.274;12.292;2023-08-06T09:05:43;18.20;99.90
1800;DHT22;919;48.274;12.292;2023-08-06T09:08:18;18.30;99.90
1800;DHT22;919;48.274;12.292;2023-08-06T09:10:48;18.30;99.90
1800;DHT22;919;48.274;12.292;2023-08-06T09:13:16;18.20;99.90
1800;DHT22;919;48.274;12.292;2023-08-06T09:15:49;18.10;99.90
1800;DHT22;919;48.274;12.292;2023-08-06T09:18:25;18.00;99.90
1800;DHT22;919;48.274;12.292;2023-08-06T09:20:52;17.90;99.90
1800;DHT22;919;48.274;12.292;2023-08-06T09:23:19;17.90;99.90
1800;DHT22;919;48.274;12.292;2023-08-06T09:26:12;17.90;99.90
1800;DHT22;919;48.274;12.292;2023-08-06T09:28:40;17.80;99.90
1800;DHT22;919;48.274;12.292;2023-08-06T09:31:10;17.90;99.90
1800;DHT22;919;48.274;12.292;2023-08-06T09:33:42;18.10;99.90
1800;DHT22;919;48.274;12.292;2023-08-06T09:36:11;18.20;99.90
1800;DHT22;919;48.274;12.292;2023-08-06T09:38:38;18.30;99.90
1800;DHT22;919;48.274;12.292;2023-08-06T09:41:06;18.40;99.90
1800;DHT22;919;48.274;12.292;2023-08-06T09:43:40;18.20;99.90
1800;DHT22;919;48.274;12.292;2023-08-06T09:46:13;18.20;99.90
1800;DHT22;919;48.274;12.292;2023-08-06T09:48:45;18.00;99.90
1800;DHT22;919;48.274;12.292;2023-08-06T09:51:13;17.90;99.90
1800;DHT22;919;48.274;12.292;2023-08-06T09:53:42;17.80;99.90
1800;DHT22;919;48.274;12.292;2023-08-06T09:56:11;17.80;99.90
1800;DHT22;919;48.274;12.292;2023-08-06T09:58:42;17.70;99.90
1800;DHT22;919;48.274;12.292;2023-08-06T10:01:12;17.60;99.90
1800;DHT22;919;48.274;12.292;2023-08-06T10:03:41;17.40;99.90
1800;DHT22;919;48.274;12.292;2023-08-06T10:06:09;17.10;99.90
1800;DHT22;919;48.274;12.292;2023-08-06T10:08:37;16.90;99.90
1800;DHT22;919;48.274;12.292;2023-08-06T10:11:06;16.70;99.90
1800;DHT22;919;48.274;12.292;2023-08-06T10:13:35;16.90;99.90
1800;DHT22;919;48.274;12.292;2023-08-06T10:16:04;17.00;99.90
1800;DHT22;919;48.274;12.292;2023-08-06T10:18:36;17.00;99.90
1800;DHT22;919;48.274;12.292;2023-08-06T10:21:10;17.00;99.90
1800;DHT22;919;48.274;12.292;2023-08-06T10:23:41;17.10;99.90
1800;DHT22;919;48.274;12.292;2023-08-06T10:26:08;17.30;99.90
1800;DHT22;919;48.274;12.292;2023-08-06T10:28:36;17.40;99.90
1800;DHT22;919;48.274;12.292;2023-08-06T10:31:04;17.40;99.90
1800;DHT22;919;48.274;12.292;2023-08-06T10:33:43;17.40;99.90
1800;DHT22;919;48.274;12.292;2023-08-06T10:36:11;17.40;99.90
1800;DHT22;919;48.274;12.292;2023-08-06T10:38:46;17.10;99.90
1800;DHT22;919;48.274;12.292;2023-08-06T10:41:23;17.00;99.90
1800;DHT22;919;48.274;12.292;2023-08-06T10:44:05;16.90;99.90
1800;DHT22;919;48.274;12.292;2023-08-06T10:46:34;16.80;99.90
1800;DHT22;919;48.274;12.292;2023-08-06T10:49:03;16.80;99.90
1800;DHT22;919;48.274;12.292;2023-08-06T10:51:33;16.60;99.90
1800;DHT22;919;48.274;12.292;2023-08-06T10:54:00;16.50;99.90
1800;DHT22;919;48.274;12.292;2023-08-06T10:56:27;16.50;99.90
1800;DHT22;919;48.274;12.292;2023-08-06T10:58:55;16.50;99.90
1800;DHT22;919;48.274;12.292;2023-08-06T11:01:23;16.50;99.90
1800;DHT22;919;48.274;12.292;2023-08-06T11:03:51;16.40;99.90
1800;DHT22;919;48.274;12.292;2023-08-06T11:06:21;16.40;99.90
1800;DHT22;919;48.274;12.292;2023-08-06T11:08:55;16.50;99.90
1800;DHT22;919;48.274;12.292;2023-08-06T11:11:26;16.60;99.90
1800;DHT22;919;48.274;12.292;2023-08-06T11:13:56;16.80;99.90
1800;DHT22;919;48.274;12.292;2023-08-06T11:16:26;17.00;99.90
1800;DHT22;919;48.274;12.292;2023-08-06T11:18:56;17.20;99.90
1800;DHT22;919;48.274;12.292;2023-08-06T11:21:28;17.10;99.90
1800;DHT22;919;48.274;12.292;2023-08-06T11:23:58;17.00;99.90
1800;DHT22;919;48.274;12.292;2023-08-06T11:26:26;16.90;99.90
1800;DHT22;919;48.274;12.292;2023-08-06T11:28:54;16.90;99.90
1800;DHT22;919;48.274;12.292;2023-08-06T11:31:23;17.10;99.90
1800;DHT22;919;48.274;12.292;2023-08-06T11:33:52;17.60;99.90
1800;DHT22;919;48.274;12.292;2023-08-06T11:36:37;17.90;99.90
1800;DHT22;919;48.274;12.292;2023-08-06T11:39:08;17.90;99.90
1800;DHT22;919;48.274;12.292;2023-08-06T11:41:36;18.10;99.90
1800;DHT22;919;48.274;12.292;2023-08-06T11:44:05;18.20;99.90
1800;DHT22;919;48.274;12.292;2023-08-06T11:46:50;18.20;99.90
1800;DHT22;919;48.274;12.292;2023-08-06T11:49:18;18.10;99.90
1800;DHT22;919;48.274;12.292;2023-08-06T11:51:50;17.80;99.90
1800;DHT22;919;48.274;12.292;2023-08-06T11:54:31;17.50;99.90
1800;DHT22;919;48.274;12.292;2023-08-06T11:56:59;17.30;99.90
1800;DHT22;919;48.274;12.292;2023-08-06T11:59:27;17.10;99.90
1800;DHT22;919;48.274;12.292;2023-08-06T12:01:54;17.10;99.90
1800;DHT22;919;48.274;12.292;2023-08-06T12:04:23;17.00;99.90
1800;DHT22;919;48.274;12.292;2023-08-06T12:06:52;17.00;99.90
1800;DHT22;919;48.274;12.292;2023-08-06T12:09:18;17.00;99.90
1800;DHT22;919;48.274;12.292;2023-08-06T12:11:46;16.80;99.90
1800;DHT22;919;48.274;12.292;2023-08-06T12:14:14;16.80;99.90
1800;DHT22;919;48.274;12.292;2023-08-06T12:16:41;16.80;99.90
1800;DHT22;919;48.274;12.292;2023-08-06T12:19:08;16.90;99.90
1800;DHT22;919;48.274;12.292;2023-08-06T12:21:35;16.80;99.90
1800;DHT22;919;48.274;12.292;2023-08-06T12:24:04;16.60;99.90
1800;DHT22;919;48.274;12.292;2023-08-06T12:29:32;17.00;99.90
1800;DHT22;919;48.274;12.292;2023-08-06T12:32:00;17.70;99.90
1800;DHT22;919;48.274;12.292;2023-08-06T12:34:27;17.50;99.90
1800;DHT22;919;48.274;12.292;2023-08-06T12:36:54;17.40;99.90
1800;DHT22;919;48.274;12.292;2023-08-06T12:39:23;17.60;99.90
1800;DHT22;919;48.274;12.292;2023-08-06T12:41:51;17.60;99.90
1800;DHT22;919;48.274;12.292;2023-08-06T12:44:21;17.60;99.90
1800;DHT22;919;48.274;12.292;2023-08-06T12:46:49;17.70;99.90
1800;DHT22;919;48.274;12.292;2023-08-06T12:49:18;17.70;99.90
1800;DHT22;919;48.274;12.292;2023-08-06T12:51:53;17.70;99.90
1800;DHT22;919;48.274;12.292;2023-08-06T12:54:23;17.80;99.90
1800;DHT22;919;48.274;12.292;2023-08-06T12:56:52;18.00;99.90
1800;DHT22;919;48.274;12.292;2023-08-06T12:59:20;17.80;99.90
1800;DHT22;919;48.274;12.292;2023-08-06T13:01:48;17.70;99.90
1800;DHT22;919;48.274;12.292;2023-08-06T13:04:15;17.90;99.90
1800;DHT22;919;48.274;12.292;2023-08-06T13:06:45;18.10;99.90
1800;DHT22;919;48.274;12.292;2023-08-06T13:09:15;18.40;99.90
1800;DHT22;919;48.274;12.292;2023-08-06T13:11:44;18.70;99.90
1800;DHT22;919;48.274;12.292;2023-08-06T13:14:13;18.60;99.90
1800;DHT22;919;48.274;12.292;2023-08-06T13:16:45;18.40;99.90
1800;DHT22;919;48.274;12.292;2023-08-06T13:19:12;18.40;99.90
1800;DHT22;919;48.274;12.292;2023-08-06T13:21:59;18.30;99.90
1800;DHT22;919;48.274;12.292;2023-08-06T13:24:28;18.30;99.90
1800;DHT22;919;48.274;12.292;2023-08-06T13:26:57;17.90;99.90
1800;DHT22;919;48.274;12.292;2023-08-06T13:29:25;17.50;99.90
1800;DHT22;919;48.274;12.292;2023-08-06T13:32:01;17.10;99.90
1800;DHT22;919;48.274;12.292;2023-08-06T13:34:28;16.80;99.90
1800;DHT22;919;48.274;12.292;2023-08-06T13:36:55;17.10;99.90
1800;DHT22;919;48.274;12.292;2023-08-06T13:39:23;17.60;99.90
1800;DHT22;919;48.274;12.292;2023-08-06T13:41:50;17.80;99.90
1800;DHT22;919;48.274;12.292;2023-08-06T13:44:19;17.90;99.90
1800;DHT22;919;48.274;12.292;2023-08-06T13:46:46;17.80;99.90
1800;DHT22;919;48.274;12.292;2023-08-06T13:49:15;17.70;99.90
1800;DHT22;919;48.274;12.292;2023-08-06T13:51:42;17.70;99.90
1800;DHT22;919;48.274;12.292;2023-08-06T13:54:09;18.10;99.90
1800;DHT22;919;48.274;12.292;2023-08-06T13:56:37;18.10;99.90
1800;DHT22;919;48.274;12.292;2023-08-06T13:59:05;17.80;99.90
1800;DHT22;919;48.274;12.292;2023-08-06T14:01:33;17.60;99.90
1800;DHT22;919;48.274;12.292;2023-08-06T14:04:01;17.70;99.90
1800;DHT22;919;48.274;12.292;2023-08-06T14:06:28;17.80;99.90
1800;DHT22;919;48.274;12.292;2023-08-06T14:08:59;17.80;99.90
1800;DHT22;919;48.274;12.292;2023-08-06T14:11:27;17.70;99.90
1800;DHT22;919;48.274;12.292;2023-08-06T14:13:55;17.80;99.90
1800;DHT22;919;48.274;12.292;2023-08-06T14:16:24;17.80;99.90
1800;DHT22;919;48.274;12.292;2023-08-06T14:19:02;17.80;99.90
1800;DHT22;919;48.274;12.292;2023-08-06T14:21:30;17.80;99.90
1800;DHT22;919;48.274;12.292;2023-08-06T14:23:57;17.70;99.90
1800;DHT22;919;48.274;12.292;2023-08-06T14:26:25;17.60;99.90
1800;DHT22;919;48.274;12.292;2023-08-06T14:28:52;17.40;99.90
1800;DHT22;919;48.274;12.292;2023-08-06T14:31:20;17.30;99.90
1800;DHT22;919;48.274;12.292;2023-08-06T14:33:48;17.20;99.90
1800;DHT22;919;48.274;12.292;2023-08-06T14:36:17;17.00;99.90
1800;DHT22;919;48.274;12.292;2023-08-06T14:38:45;16.90;99.90
1800;DHT22;919;48.274;12.292;2023-08-06T14:41:13;16.80;99.90
1800;DHT22;919;48.274;12.292;2023-08-06T14:43:41;16.90;99.90
1800;DHT22;919;48.274;12.292;2023-08-06T14:46:09;16.80;99.90
1800;DHT22;919;48.274;12.292;2023-08-06T14:48:37;16.70;99.90
1800;DHT22;919;48.274;12.292;2023-08-06T14:51:04;16.70;99.90
1800;DHT22;919;48.274;12.292;2023-08-06T14:53:35;16.70;99.90
1800;DHT22;919;48.274;12.292;2023-08-06T14:56:04;16.80;99.90
1800;DHT22;919;48.274;12.292;2023-08-06T14:58:32;16.90;99.90
1800;DHT22;919;48.274;12.292;2023-08-06T15:01:02;17.00;99.90
1800;DHT22;919;48.274;12.292;2023-08-06T15:03:35;17.00;99.90
1800;DHT22;919;48.274;12.292;2023-08-06T15:06:03;16.90;99.90
1800;DHT22;919;48.274;12.292;2023-08-06T15:08:30;16.70;99.90
1800;DHT22;919;48.274;12.292;2023-08-06T15:10:58;16.50;99.90
1800;DHT22;919;48.274;12.292;2023-08-06T15:13:27;16.20;99.90
1800;DHT22;919;48.274;12.292;2023-08-06T15:15:55;15.90;99.90
1800;DHT22;919;48.274;12.292;2023-08-06T15:18:24;15.50;99.90
1800;DHT22;919;48.274;12.292;2023-08-06T15:20:55;15.50;99.90
1800;DHT22;919;48.274;12.292;2023-08-06T15:23:30;15.50;99.90
1800;DHT22;919;48.274;12.292;2023-08-06T15:25:59;15.30;99.90
1800;DHT22;919;48.274;12.292;2023-08-06T15:28:26;15.30;99.90
1800;DHT22;919;48.274;12.292;2023-08-06T15:30:55;15.20;99.90
1800;DHT22;919;48.274;12.292;2023-08-06T15:33:22;15.00;99.90
1800;DHT22;919;48.274;12.292;2023-08-06T15:35:49;15.00;99.90
1800;DHT22;919;48.274;12.292;2023-08-06T15:38:17;14.90;99.90
1800;DHT22;919;48.274;12.292;2023-08-06T15:40:44;14.90;99.90
1800;DHT22;919;48.274;12.292;2023-08-06T15:43:13;14.90;99.90
1800;DHT22;919;48.274;12.292;2023-08-06T15:45:40;15.10;99.90
1800;DHT22;919;48.274;12.292;2023-08-06T15:48:09;15.50;99.90
1800;DHT22;919;48.274;12.292;2023-08-06T15:50:37;15.80;99.90
1800;DHT22;919;48.274;12.292;2023-08-06T15:53:04;15.90;99.90
1800;DHT22;919;48.274;12.292;2023-08-06T15:55:32;15.80;99.90
1800;DHT22;919;48.274;12.292;2023-08-06T15:58:03;15.70;99.90
1800;DHT22;919;48.274;12.292;2023-08-06T16:00:32;15.40;99.90
1800;DHT22;919;48.274;12.292;2023-08-06T16:02:59;15.30;99.90
1800;DHT22;919;48.274;12.292;2023-08-06T16:05:27;15.10;99.90
1800;DHT22;919;48.274;12.292;2023-08-06T16:07:55;15.10;99.90
1800;DHT22;919;48.274;12.292;2023-08-06T16:10:22;15.00;99.90
1800;DHT22;919;48.274;12.292;2023-08-06T16:12:49;14.90;99.90